createdAt,value
2023-08-08T00:01:04.808Z,0.70
2023-08-08T00:04:26.428Z,0.45
2023-08-08T00:07:50.113Z,0.50
2023-08-08T00:11:14.247Z,0.40
2023-08-08T00:14:35.921Z,0.77
2023-08-08T00:17:57.559Z,0.50
2023-08-08T00:21:19.188Z,0.60
2023-08-08T00:24:40.884Z,0.70
2023-08-08T00:28:02.491Z,0.40
2023-08-08T00:31:24.191Z,0.60
2023-08-08T00:34:48.243Z,0.30
2023-08-08T00:38:12.522Z,0.35
2023-08-08T00:41:36.354Z,0.40
2023-08-08T00:45:04.878Z,0.60
2023-08-08T00:48:26.652Z,0.60
2023-08-08T00:51:51.739Z,0.60
2023-08-08T00:55:16.249Z,0.60
2023-08-08T00:58:38.217Z,0.60
2023-08-08T01:02:00.231Z,0.45
2023-08-08T01:05:22.576Z,0.60
2023-08-08T01:08:51.191Z,0.40
2023-08-08T01:12:15.323Z,0.68
2023-08-08T01:15:40.164Z,0.60
2023-08-08T01:19:05.399Z,0.60
2023-08-08T01:22:37.360Z,1.00
2023-08-08T01:25:59.877Z,0.75
2023-08-08T01:29:26.400Z,0.88
2023-08-08T01:32:50.438Z,0.63
2023-08-08T01:36:21.907Z,0.70
2023-08-08T01:39:48.344Z,0.50
2023-08-08T01:43:12.566Z,0.50
2023-08-08T01:46:39.832Z,1.10
2023-08-08T01:50:04.051Z,0.70
2023-08-08T01:53:25.840Z,0.80
2023-08-08T01:56:47.585Z,1.15
2023-08-08T02:00:09.833Z,1.10
2023-08-08T02:03:32.212Z,0.93
2023-08-08T02:06:54.013Z,0.70
2023-08-08T02:10:15.842Z,0.60
2023-08-08T02:13:40.033Z,1.58
2023-08-08T02:17:01.654Z,1.40
2023-08-08T02:20:23.260Z,0.90
2023-08-08T02:23:44.853Z,0.80
2023-08-08T02:27:08.675Z,0.80
2023-08-08T02:30:32.733Z,0.70
2023-08-08T02:33:55.917Z,0.90
2023-08-08T02:37:17.564Z,0.80
2023-08-08T02:40:41.923Z,1.00
2023-08-08T02:44:03.651Z,1.13
2023-08-08T02:47:30.073Z,1.00
2023-08-08T02:50:51.666Z,1.00
2023-08-08T02:54:15.765Z,2.50
2023-08-08T02:57:39.644Z,0.85
2023-08-08T03:01:01.478Z,0.90
2023-08-08T03:04:25.425Z,0.98
2023-08-08T03:07:47.157Z,0.73
2023-08-08T03:11:10.910Z,0.90
2023-08-08T03:14:34.960Z,1.17
2023-08-08T03:17:59.309Z,0.90
2023-08-08T03:21:23.475Z,0.80
2023-08-08T03:24:45.099Z,0.90
2023-08-08T03:28:09.109Z,1.13
2023-08-08T03:31:33.278Z,1.00
2023-08-08T03:35:00.226Z,0.88
2023-08-08T03:38:21.859Z,0.80
2023-08-08T03:41:43.970Z,0.90
2023-08-08T03:45:06.254Z,1.10
2023-08-08T03:48:30.173Z,1.00
2023-08-08T03:51:51.811Z,1.17
2023-08-08T03:55:13.525Z,1.20
2023-08-08T03:58:39.352Z,0.90
2023-08-08T04:02:03.487Z,1.13
2023-08-08T04:05:29.955Z,1.10
2023-08-08T04:08:51.633Z,0.85
2023-08-08T04:12:13.431Z,0.90
2023-08-08T04:15:35.086Z,0.75
2023-08-08T04:19:00.505Z,1.00
2023-08-08T04:22:22.175Z,1.10
2023-08-08T04:25:46.715Z,1.00
2023-08-08T04:29:08.379Z,1.00
2023-08-08T04:32:30.217Z,0.80
2023-08-08T04:35:51.951Z,1.27
2023-08-08T04:39:13.540Z,1.00
2023-08-08T04:42:35.452Z,0.98
2023-08-08T04:45:57.068Z,0.60
2023-08-08T04:49:18.858Z,1.63
2023-08-08T04:52:40.550Z,0.93
2023-08-08T04:56:02.233Z,1.02
2023-08-08T04:59:27.562Z,1.02
2023-08-08T05:02:49.403Z,1.25
2023-08-08T05:06:11.044Z,1.00
2023-08-08T05:09:35.652Z,1.30
2023-08-08T05:12:59.704Z,1.50
2023-08-08T05:16:21.689Z,1.20
2023-08-08T05:19:45.386Z,1.17
2023-08-08T05:23:07.036Z,1.35
2023-08-08T05:26:28.629Z,1.38
2023-08-08T05:29:50.277Z,1.30
2023-08-08T05:33:14.575Z,1.08
2023-08-08T05:36:38.677Z,1.00
2023-08-08T05:40:00.460Z,1.30
2023-08-08T05:43:23.080Z,1.00
2023-08-08T05:46:44.762Z,1.30
2023-08-08T05:50:08.035Z,1.10
2023-08-08T05:53:29.694Z,1.10
2023-08-08T05:56:54.339Z,1.15
2023-08-08T06:00:16.456Z,1.50
2023-08-08T06:03:41.126Z,1.15
2023-08-08T06:07:06.709Z,1.50
2023-08-08T06:10:33.994Z,1.20
2023-08-08T06:13:55.896Z,1.60
2023-08-08T06:17:17.547Z,1.45
2023-08-08T06:20:39.312Z,1.50
2023-08-08T06:24:01.064Z,1.90
2023-08-08T06:27:22.740Z,1.23
2023-08-08T06:30:46.712Z,1.30
2023-08-08T06:34:08.809Z,1.10
2023-08-08T06:37:33.046Z,1.45
2023-08-08T06:40:57.240Z,1.40
2023-08-08T06:44:19.514Z,1.25
2023-08-08T06:47:44.143Z,1.15
2023-08-08T06:51:08.132Z,1.38
2023-08-08T06:54:29.762Z,1.10
2023-08-08T06:57:51.399Z,1.50
2023-08-08T07:01:13.321Z,1.27
2023-08-08T07:04:35.012Z,1.20
2023-08-08T07:07:59.003Z,1.30
2023-08-08T07:11:26.022Z,1.38
2023-08-08T07:14:48.044Z,1.30
2023-08-08T07:18:11.853Z,1.27
2023-08-08T07:21:33.495Z,1.35
2023-08-08T07:24:55.236Z,1.20
2023-08-08T07:28:19.411Z,1.60
2023-08-08T07:31:44.514Z,1.38
2023-08-08T07:35:09.843Z,1.40
2023-08-08T07:38:31.862Z,1.30
2023-08-08T07:41:53.661Z,1.65
2023-08-08T07:45:17.859Z,1.75
2023-08-08T07:48:39.511Z,1.42
2023-08-08T07:52:03.726Z,1.70
2023-08-08T07:55:27.602Z,1.40
2023-08-08T07:58:49.437Z,1.50
2023-08-08T08:02:11.289Z,1.60
2023-08-08T08:05:36.035Z,1.40
2023-08-08T08:08:59.994Z,1.63
2023-08-08T08:12:21.694Z,1.42
2023-08-08T08:15:43.894Z,1.30
2023-08-08T08:19:05.567Z,1.00
2023-08-08T08:22:27.225Z,1.38
2023-08-08T08:25:49.870Z,1.80
2023-08-08T08:29:13.746Z,2.22
2023-08-08T08:32:36.162Z,1.55
2023-08-08T08:35:57.789Z,1.48
2023-08-08T08:39:24.645Z,1.50
2023-08-08T08:42:47.030Z,1.20
2023-08-08T08:46:14.614Z,1.70
2023-08-08T08:49:37.239Z,1.45
2023-08-08T08:53:03.652Z,1.10
2023-08-08T08:56:25.558Z,1.40
2023-08-08T08:59:47.257Z,1.98
2023-08-08T09:03:09.058Z,1.70
2023-08-08T09:06:36.473Z,1.20
2023-08-08T09:09:58.156Z,1.70
2023-08-08T09:13:19.894Z,1.60
2023-08-08T09:16:41.800Z,1.50
2023-08-08T09:20:05.135Z,1.35
2023-08-08T09:23:26.892Z,1.55
2023-08-08T09:26:48.603Z,1.50
2023-08-08T09:30:13.147Z,1.52
2023-08-08T09:33:34.797Z,1.30
2023-08-08T09:36:58.617Z,1.40
2023-08-08T09:40:22.553Z,1.38
2023-08-08T09:43:48.201Z,1.48
2023-08-08T09:47:13.948Z,1.75
2023-08-08T09:50:39.249Z,1.60
2023-08-08T09:54:04.243Z,1.73
2023-08-08T09:57:29.212Z,1.25
2023-08-08T10:00:51.632Z,1.27
2023-08-08T10:04:16.081Z,1.42
2023-08-08T10:07:40.410Z,1.60
2023-08-08T10:11:03.102Z,1.15
2023-08-08T10:14:35.995Z,1.42
2023-08-08T10:17:59.045Z,1.40
2023-08-08T10:21:24.265Z,1.60
2023-08-08T10:24:50.685Z,1.30
2023-08-08T10:35:04.560Z,1.55
2023-08-08T10:38:27.399Z,1.10
2023-08-08T10:41:51.664Z,1.20
2023-08-08T10:45:15.351Z,1.58
2023-08-08T10:48:38.426Z,1.30
2023-08-08T10:52:04.358Z,1.40
2023-08-08T10:55:28.991Z,1.35
2023-08-08T10:58:50.985Z,1.40
2023-08-08T11:02:16.689Z,1.40
2023-08-08T11:05:39.465Z,1.40
2023-08-08T11:09:02.462Z,1.50
2023-08-08T11:12:27.583Z,1.17
2023-08-08T11:15:51.983Z,1.20
2023-08-08T11:19:14.842Z,1.25
2023-08-08T11:22:36.490Z,1.67
2023-08-08T11:29:24.864Z,1.30
2023-08-08T11:33:15.315Z,1.25
2023-08-08T11:36:36.660Z,1.20
2023-08-08T11:39:58.461Z,1.77
2023-08-08T11:43:20.819Z,1.50
2023-08-08T11:46:47.557Z,1.50
2023-08-08T11:50:16.294Z,1.40
2023-08-08T11:53:49.782Z,1.92
2023-08-08T11:57:11.526Z,1.42
2023-08-08T12:00:33.785Z,1.17
2023-08-08T12:03:56.963Z,1.50
2023-08-08T12:07:19.305Z,1.38
2023-08-08T12:10:44.405Z,1.40
2023-08-08T12:14:10.975Z,1.33
2023-08-08T12:17:32.850Z,1.73
2023-08-08T12:20:54.668Z,1.55
2023-08-08T12:24:16.379Z,1.50
2023-08-08T12:27:40.961Z,1.23
2023-08-08T12:31:02.845Z,1.50
2023-08-08T12:34:26.776Z,1.52
2023-08-08T12:37:55.490Z,1.30
2023-08-08T12:41:17.111Z,1.50
2023-08-08T12:44:38.738Z,1.25
2023-08-08T12:48:00.481Z,1.30
2023-08-08T12:51:24.689Z,1.70
2023-08-08T12:54:48.684Z,1.30
2023-08-08T12:58:10.340Z,1.30
2023-08-08T13:01:34.449Z,1.30
2023-08-08T13:04:56.169Z,1.45
2023-08-08T13:08:17.836Z,1.30
2023-08-08T13:11:42.286Z,1.50
2023-08-08T13:15:09.133Z,1.40
2023-08-08T13:18:33.201Z,1.10
2023-08-08T13:21:55.654Z,1.40
2023-08-08T13:25:19.764Z,1.17
2023-08-08T13:28:46.308Z,1.42
2023-08-08T13:32:08.075Z,1.52
2023-08-08T13:35:29.795Z,1.40
2023-08-08T13:38:55.454Z,1.45
2023-08-08T13:42:17.301Z,1.10
2023-08-08T13:45:38.990Z,1.20
2023-08-08T13:49:00.658Z,1.33
2023-08-08T13:52:22.530Z,1.38
2023-08-08T13:55:45.678Z,1.20
2023-08-08T13:59:09.619Z,0.90
2023-08-08T14:02:31.377Z,1.35
2023-08-08T14:05:55.579Z,1.27
2023-08-08T14:09:19.531Z,1.15
2023-08-08T14:12:42.689Z,1.30
2023-08-08T14:16:04.553Z,1.38
2023-08-08T14:19:26.223Z,1.38
2023-08-08T14:22:48.420Z,1.30
2023-08-08T14:26:10.066Z,1.30
2023-08-08T14:29:31.633Z,1.30
2023-08-08T14:32:56.034Z,1.20
2023-08-08T14:36:20.131Z,1.27
2023-08-08T14:39:41.769Z,1.42
2023-08-08T14:43:11.092Z,1.40
2023-08-08T14:46:35.853Z,1.10
2023-08-08T14:49:59.395Z,1.40
2023-08-08T14:53:21.449Z,1.30
2023-08-08T14:56:45.561Z,1.40
2023-08-08T15:00:10.279Z,1.17
2023-08-08T15:03:31.985Z,1.20
2023-08-08T15:06:53.752Z,1.30
2023-08-08T15:10:17.676Z,1.10
2023-08-08T15:13:39.365Z,1.15
2023-08-08T15:17:01.177Z,1.55
2023-08-08T15:20:23.041Z,1.30
2023-08-08T15:23:47.484Z,1.00
2023-08-08T15:27:09.131Z,1.38
2023-08-08T15:30:31.313Z,1.10
2023-08-08T15:33:55.716Z,1.77
2023-08-08T15:37:22.109Z,1.10
2023-08-08T15:40:43.798Z,1.20
2023-08-08T15:44:05.514Z,1.25
2023-08-08T15:47:27.200Z,1.23
2023-08-08T15:50:48.835Z,1.13
2023-08-08T15:54:10.907Z,1.30
2023-08-08T15:57:32.720Z,1.27
2023-08-08T16:00:57.705Z,1.52
2023-08-08T16:04:19.367Z,1.33
2023-08-08T16:07:41.093Z,1.20
2023-08-08T16:11:04.230Z,1.58
2023-08-08T16:14:28.579Z,1.30
2023-08-08T16:17:52.956Z,1.40
2023-08-08T16:21:17.083Z,1.20
2023-08-08T16:24:38.889Z,1.15
2023-08-08T16:28:04.265Z,1.50
2023-08-08T16:31:25.965Z,1.40
2023-08-08T16:34:50.292Z,1.27
2023-08-08T16:38:15.264Z,1.63
2023-08-08T16:41:41.760Z,2.67
2023-08-08T16:45:03.852Z,1.90
2023-08-08T16:48:27.571Z,1.23
2023-08-08T16:51:51.732Z,1.70
2023-08-08T16:55:13.787Z,4.65
2023-08-08T16:58:35.540Z,4.25
2023-08-08T17:02:00.020Z,2.05
2023-08-08T17:05:22.365Z,1.55
2023-08-08T17:08:44.020Z,1.30
2023-08-08T17:12:08.617Z,1.23
2023-08-08T17:15:30.275Z,1.30
2023-08-08T17:18:53.595Z,2.13
2023-08-08T17:22:15.306Z,1.58
2023-08-08T17:25:37.961Z,1.55
2023-08-08T17:28:59.564Z,1.80
2023-08-08T17:32:23.548Z,1.75
2023-08-08T17:35:48.386Z,1.67
2023-08-08T17:39:10.067Z,2.38
2023-08-08T17:42:31.785Z,2.00
2023-08-08T17:45:55.719Z,1.48
2023-08-08T17:49:17.445Z,2.03
2023-08-08T17:52:39.065Z,2.03
2023-08-08T17:56:01.088Z,2.75
2023-08-08T17:59:24.537Z,2.92
2023-08-08T18:02:48.365Z,2.55
2023-08-08T18:06:10.095Z,2.20
2023-08-08T18:09:32.357Z,2.00
2023-08-08T18:12:56.878Z,2.10
2023-08-08T18:16:18.588Z,2.58
2023-08-08T18:19:40.238Z,2.35
2023-08-08T18:23:02.690Z,2.25
2023-08-08T18:26:27.833Z,2.35
2023-08-08T18:29:49.602Z,2.38
2023-08-08T18:33:16.169Z,2.65
2023-08-08T18:36:37.875Z,2.13
2023-08-08T18:39:59.546Z,2.60
2023-08-08T18:43:23.494Z,2.80
2023-08-08T18:46:47.859Z,2.72
2023-08-08T18:50:09.941Z,2.47
2023-08-08T18:53:31.583Z,3.05
2023-08-08T18:56:53.721Z,2.63
2023-08-08T19:00:15.449Z,2.30
2023-08-08T19:03:37.277Z,2.40
2023-08-08T19:06:59.736Z,2.28
2023-08-08T19:10:23.820Z,1.98
2023-08-08T19:13:47.660Z,2.00
2023-08-08T19:17:09.335Z,2.30
2023-08-08T19:20:30.936Z,1.80
2023-08-08T19:23:56.289Z,1.85
2023-08-08T19:27:20.218Z,2.40
2023-08-08T19:30:41.855Z,2.60
2023-08-08T19:34:06.808Z,2.50
2023-08-08T19:37:31.880Z,2.80
2023-08-08T19:40:55.770Z,2.50
2023-08-08T19:44:17.443Z,2.83
2023-08-08T19:47:39.233Z,2.70
2023-08-08T19:51:03.423Z,2.22
2023-08-08T19:54:25.144Z,2.30
2023-08-08T19:57:47.186Z,2.40
2023-08-08T20:01:08.778Z,2.00
2023-08-08T20:04:32.633Z,2.55
2023-08-08T20:07:56.211Z,2.80
2023-08-08T20:11:20.403Z,2.35
2023-08-08T20:14:44.221Z,2.22
2023-08-08T20:18:06.031Z,1.80
2023-08-08T20:21:27.831Z,2.45
2023-08-08T20:24:49.448Z,2.42
2023-08-08T20:28:11.360Z,2.28
2023-08-08T20:31:33.095Z,2.00
2023-08-08T20:34:59.560Z,1.80
2023-08-08T20:38:21.237Z,1.88
2023-08-08T20:41:42.850Z,2.40
2023-08-08T20:45:05.326Z,2.63
2023-08-08T20:48:29.390Z,1.88
2023-08-08T20:51:53.415Z,2.00
2023-08-08T20:55:15.010Z,2.38
2023-08-08T20:58:39.161Z,2.55
2023-08-08T21:02:03.245Z,2.10
2023-08-08T21:05:24.926Z,2.35
2023-08-08T21:08:51.219Z,2.70
2023-08-08T21:12:13.007Z,2.22
2023-08-08T21:15:34.656Z,2.63
2023-08-08T21:18:56.394Z,2.33
2023-08-08T21:22:20.786Z,2.33
2023-08-08T21:25:44.773Z,2.00
2023-08-08T21:29:06.348Z,2.35
2023-08-08T21:32:32.551Z,2.20
2023-08-08T21:35:54.370Z,2.08
2023-08-08T21:39:16.016Z,2.13
2023-08-08T21:42:38.566Z,2.13
2023-08-08T21:46:00.243Z,2.05
2023-08-08T21:49:21.837Z,2.10
2023-08-08T21:52:43.527Z,2.45
2023-08-08T21:56:07.857Z,2.50
2023-08-08T21:59:29.870Z,2.45
2023-08-08T22:02:54.060Z,2.13
2023-08-08T22:06:20.526Z,2.22
2023-08-08T22:09:44.513Z,2.33
2023-08-08T22:13:11.145Z,1.90
2023-08-08T22:16:38.013Z,1.83
2023-08-08T22:19:59.688Z,2.08
2023-08-08T22:23:23.805Z,2.20
2023-08-08T22:26:45.455Z,2.40
2023-08-08T22:30:07.954Z,2.35
2023-08-08T22:33:29.632Z,2.13
2023-08-08T22:36:51.217Z,2.28
2023-08-08T22:40:16.538Z,2.42
2023-08-08T22:43:38.225Z,2.40
2023-08-08T22:47:05.031Z,2.30
2023-08-08T22:50:26.912Z,2.25
2023-08-08T22:53:51.033Z,2.40
2023-08-08T22:57:14.980Z,2.83
2023-08-08T23:00:38.923Z,2.83
2023-08-08T23:04:01.036Z,2.30
2023-08-08T23:07:22.733Z,2.47
2023-08-08T23:10:44.303Z,2.60
2023-08-08T23:14:05.951Z,2.30
2023-08-08T23:17:30.470Z,2.15
2023-08-08T23:20:52.210Z,2.45
2023-08-08T23:24:13.932Z,2.17
2023-08-08T23:27:35.557Z,2.40
2023-08-08T23:30:57.333Z,2.55
2023-08-08T23:34:19.094Z,2.65
2023-08-08T23:37:40.876Z,2.58
2023-08-08T23:41:04.634Z,2.30
2023-08-08T23:44:28.803Z,2.53
2023-08-08T23:47:52.738Z,2.35
2023-08-08T23:51:19.210Z,2.50
2023-08-08T23:54:43.162Z,2.35
2023-08-08T23:58:04.788Z,2.60
